createdAt,value
2023-02-08T00:00:59.535Z,-1.00
2023-02-08T00:04:02.773Z,-1.20
2023-02-08T00:07:06.101Z,-1.20
2023-02-08T00:10:10.847Z,-1.10
2023-02-08T00:13:15.754Z,-1.20
2023-02-08T00:16:19.677Z,-0.90
2023-02-08T00:19:23.079Z,-0.80
2023-02-08T00:22:26.274Z,-1.00
2023-02-08T00:25:29.621Z,-1.20
2023-02-08T00:28:34.387Z,-1.30
2023-02-08T00:31:37.761Z,-1.30
2023-02-08T00:34:41.058Z,-1.30
2023-02-08T00:37:45.840Z,-1.10
2023-02-08T00:40:49.062Z,-0.70
2023-02-08T00:43:53.664Z,-1.30
2023-02-08T00:46:57.081Z,-1.30
2023-02-08T00:50:00.443Z,-1.30
2023-02-08T00:53:04.207Z,-1.30
2023-02-08T00:56:08.638Z,-1.30
2023-02-08T00:59:13.524Z,-1.30
2023-02-08T01:02:16.868Z,-1.40
2023-02-08T01:05:21.252Z,-1.10
2023-02-08T01:08:24.474Z,-1.40
2023-02-08T01:11:28.561Z,-1.40
2023-02-08T01:14:33.116Z,-1.50
2023-02-08T01:17:36.351Z,-1.40
2023-02-08T01:20:39.783Z,-1.30
2023-02-08T01:23:44.540Z,-1.40
2023-02-08T01:26:47.668Z,-1.40
2023-02-08T01:29:52.683Z,-1.40
2023-02-08T01:32:55.909Z,-1.10
2023-02-08T01:35:59.284Z,-1.30
2023-02-08T01:39:03.023Z,-1.40
2023-02-08T01:42:06.621Z,-1.10
2023-02-08T01:45:30.577Z,-1.50
2023-02-08T01:48:36.664Z,-1.40
2023-02-08T01:51:44.893Z,-1.00
2023-02-08T01:54:51.908Z,-1.40
2023-02-08T01:57:58.769Z,-1.50
2023-02-08T02:01:04.835Z,-1.40
2023-02-08T02:04:09.629Z,-1.40
2023-02-08T02:07:14.453Z,-1.50
2023-02-08T02:10:23.846Z,-1.40
2023-02-08T02:13:29.504Z,-1.50
2023-02-08T02:16:34.126Z,-1.50
2023-02-08T02:19:44.784Z,-1.50
2023-02-08T02:23:20.925Z,-1.10
2023-02-08T02:27:12.317Z,-1.60
2023-02-08T02:30:59.470Z,-1.60
2023-02-08T02:34:08.746Z,-1.50
2023-02-08T02:37:29.343Z,-1.50
2023-02-08T02:40:44.104Z,-1.60
2023-02-08T02:43:51.935Z,-1.60
2023-02-08T02:47:05.709Z,-1.60
2023-02-08T02:50:18.677Z,-1.50
2023-02-08T02:53:28.973Z,-1.30
2023-02-08T02:56:33.406Z,-1.20
2023-02-08T02:59:39.208Z,-1.60
2023-02-08T03:02:42.512Z,-1.70
2023-02-08T03:05:47.330Z,-1.50
2023-02-08T03:09:22.788Z,-1.60
2023-02-08T03:12:41.296Z,-1.60
2023-02-08T03:15:53.202Z,-1.60
2023-02-08T03:19:07.250Z,-1.60
2023-02-08T03:22:18.101Z,-1.60
2023-02-08T03:25:24.845Z,-1.60
2023-02-08T03:28:36.717Z,-1.60
2023-02-08T03:31:45.047Z,-0.90
2023-02-08T03:34:54.054Z,-1.30
2023-02-08T03:38:02.769Z,-1.20
2023-02-08T03:41:10.050Z,-1.00
2023-02-08T03:44:17.793Z,-1.70
2023-02-08T03:47:24.334Z,-1.70
2023-02-08T03:50:32.097Z,-1.70
2023-02-08T03:53:40.469Z,-1.20
2023-02-08T03:56:48.174Z,-1.20
2023-02-08T03:59:57.078Z,-1.80
2023-02-08T04:03:06.989Z,-1.80
2023-02-08T04:06:10.274Z,-1.70
2023-02-08T04:09:15.087Z,-1.80
2023-02-08T04:12:18.433Z,-1.80
2023-02-08T04:15:22.059Z,-1.70
2023-02-08T04:18:25.301Z,-1.70
2023-02-08T04:21:28.613Z,-1.60
2023-02-08T04:24:33.307Z,-1.60
2023-02-08T04:27:36.693Z,-1.50
2023-02-08T04:30:40.427Z,-0.10
2023-02-08T04:33:43.956Z,-1.20
2023-02-08T04:36:47.477Z,-0.70
2023-02-08T04:39:52.642Z,-1.20
2023-02-08T04:42:55.968Z,-1.20
2023-02-08T04:45:59.607Z,-0.60
2023-02-08T04:49:02.914Z,-0.90
2023-02-08T04:52:06.383Z,-1.10
2023-02-08T04:55:11.189Z,-1.40
2023-02-08T04:58:14.429Z,-1.00
2023-02-08T05:01:17.762Z,-0.90
2023-02-08T05:04:20.955Z,-1.30
2023-02-08T05:07:24.269Z,-1.10
2023-02-08T05:10:28.955Z,-1.30
2023-02-08T05:13:32.856Z,-1.30
2023-02-08T05:16:36.092Z,-0.80
2023-02-08T05:19:39.384Z,-1.30
2023-02-08T05:22:42.684Z,-0.80
2023-02-08T05:25:47.382Z,-1.30
2023-02-08T05:28:50.629Z,-1.30
2023-02-08T05:31:54.052Z,-1.30
2023-02-08T05:34:57.428Z,-1.30
2023-02-08T05:38:01.161Z,-1.20
2023-02-08T05:41:06.115Z,-1.20
2023-02-08T05:44:09.579Z,-1.20
2023-02-08T05:47:13.367Z,-0.60
2023-02-08T05:50:16.896Z,-1.30
2023-02-08T05:53:20.304Z,-0.80
2023-02-08T05:56:24.983Z,-1.40
2023-02-08T05:59:28.840Z,-0.60
2023-02-08T06:02:33.096Z,-1.30
2023-02-08T06:05:40.272Z,-0.90
2023-02-08T06:08:43.526Z,-1.50
2023-02-08T06:11:48.127Z,-1.40
2023-02-08T06:14:51.397Z,-1.60
2023-02-08T06:17:54.800Z,-1.00
2023-02-08T06:20:58.356Z,-0.70
2023-02-08T06:24:08.886Z,-1.60
2023-02-08T06:27:13.621Z,-2.10
2023-02-08T06:30:17.666Z,-1.80
2023-02-08T06:33:21.299Z,-2.40
2023-02-08T06:36:24.538Z,-2.50
2023-02-08T06:39:27.805Z,-2.60
2023-02-08T06:42:32.520Z,-1.90
2023-02-08T06:45:36.079Z,-2.30
2023-02-08T06:48:39.470Z,-2.70
2023-02-08T06:51:42.948Z,-2.50
2023-02-08T06:54:46.578Z,-2.70
2023-02-08T06:57:54.223Z,-1.80
2023-02-08T07:00:57.580Z,-1.80
2023-02-08T07:04:01.303Z,-2.80
2023-02-08T07:07:04.866Z,-1.90
2023-02-08T07:10:09.217Z,-2.80
2023-02-08T07:13:14.010Z,-2.70
2023-02-08T07:16:18.659Z,-1.70
2023-02-08T07:19:22.203Z,-1.70
2023-02-08T07:22:25.569Z,-2.60
2023-02-08T07:25:28.990Z,-2.50
2023-02-08T07:28:34.112Z,-1.60
2023-02-08T07:31:37.501Z,-1.50
2023-02-08T07:34:41.384Z,-2.40
2023-02-08T07:37:44.680Z,-2.40
2023-02-08T07:40:47.866Z,-1.90
2023-02-08T07:43:52.467Z,-2.20
2023-02-08T07:46:55.947Z,-2.20
2023-02-08T07:49:59.141Z,-2.10
2023-02-08T07:53:02.345Z,-2.10
2023-02-08T07:56:06.505Z,-2.00
2023-02-08T07:59:11.504Z,-2.00
2023-02-08T08:02:16.455Z,-1.90
2023-02-08T08:05:19.936Z,-0.70
2023-02-08T08:08:23.258Z,-1.90
2023-02-08T08:11:26.564Z,-0.90
2023-02-08T08:14:31.170Z,-1.40
2023-02-08T08:17:34.670Z,-0.70
2023-02-08T08:20:38.115Z,-1.70
2023-02-08T08:23:42.058Z,-1.60
2023-02-08T08:26:45.300Z,-1.00
2023-02-08T08:29:50.221Z,-1.50
2023-02-08T08:32:53.597Z,-1.50
2023-02-08T08:35:56.821Z,-1.50
2023-02-08T08:39:00.103Z,-1.30
2023-02-08T08:42:04.587Z,-1.30
2023-02-08T08:45:10.478Z,-1.20
2023-02-08T08:48:13.753Z,-1.10
2023-02-08T08:51:17.082Z,-0.40
2023-02-08T08:54:21.112Z,-0.90
2023-02-08T08:57:24.405Z,-0.70
2023-02-08T09:00:29.040Z,-0.70
2023-02-08T09:03:32.383Z,-0.50
2023-02-08T09:06:36.094Z,0.40
2023-02-08T09:09:40.861Z,-0.30
2023-02-08T09:12:44.045Z,-0.20
2023-02-08T09:15:49.274Z,0.00
2023-02-08T09:18:52.812Z,-0.20
2023-02-08T09:21:57.886Z,0.10
2023-02-08T09:25:02.096Z,0.30
2023-02-08T09:28:05.720Z,0.10
2023-02-08T09:31:11.358Z,0.10
2023-02-08T09:34:14.750Z,0.20
2023-02-08T09:37:18.467Z,0.20
2023-02-08T09:40:24.501Z,0.20
2023-02-08T09:43:41.605Z,0.30
2023-02-08T09:46:52.929Z,0.60
2023-02-08T09:49:59.732Z,0.80
2023-02-08T09:53:09.245Z,0.80
2023-02-08T09:56:16.750Z,1.00
2023-02-08T09:59:26.886Z,1.00
2023-02-08T10:02:33.689Z,1.00
2023-02-08T10:05:37.118Z,0.90
2023-02-08T10:08:41.304Z,1.10
2023-02-08T10:11:58.229Z,1.10
2023-02-08T10:15:12.629Z,1.30
2023-02-08T10:18:30.541Z,1.40
2023-02-08T10:21:49.421Z,1.50
2023-02-08T10:25:23.616Z,1.30
2023-02-08T10:28:39.403Z,1.40
2023-02-08T10:32:02.185Z,1.60
2023-02-08T10:35:11.235Z,1.40
2023-02-08T10:38:45.726Z,1.60
2023-02-08T10:41:49.914Z,1.80
2023-02-08T10:45:02.077Z,2.00
2023-02-08T10:48:11.497Z,2.40
2023-02-08T10:51:20.595Z,2.80
2023-02-08T10:54:23.848Z,2.60
2023-02-08T10:57:31.762Z,3.00
2023-02-08T11:00:38.653Z,2.90
2023-02-08T11:04:03.874Z,3.60
2023-02-08T11:07:21.743Z,3.70
2023-02-08T11:10:26.803Z,4.40
2023-02-08T11:13:36.557Z,4.00
2023-02-08T11:16:41.375Z,3.80
2023-02-08T11:19:47.088Z,4.10
2023-02-08T11:22:50.486Z,4.10
2023-02-08T11:25:55.459Z,3.60
2023-02-08T11:29:04.040Z,3.80
2023-02-08T11:32:18.317Z,4.20
2023-02-08T11:35:25.646Z,3.90
2023-02-08T11:38:29.435Z,3.60
2023-02-08T11:41:32.877Z,3.80
2023-02-08T11:44:38.488Z,3.90
2023-02-08T11:47:41.767Z,5.10
2023-02-08T11:50:46.330Z,4.30
2023-02-08T11:53:49.982Z,4.40
2023-02-08T11:57:03.379Z,4.10
2023-02-08T12:00:21.156Z,3.80
2023-02-08T12:03:28.791Z,4.20
2023-02-08T12:06:57.351Z,4.70
2023-02-08T12:10:25.600Z,4.50
2023-02-08T12:14:06.656Z,3.60
2023-02-08T12:17:27.912Z,4.20
2023-02-08T12:20:42.039Z,4.30
2023-02-08T12:23:54.189Z,4.00
2023-02-08T12:27:11.382Z,3.00
2023-02-08T12:30:23.011Z,2.80
2023-02-08T12:33:39.833Z,2.90
2023-02-08T12:37:14.546Z,3.00
2023-02-08T12:40:53.934Z,2.80
2023-02-08T12:44:06.318Z,3.00
2023-02-08T12:47:21.758Z,2.80
2023-02-08T12:50:33.305Z,2.40
2023-02-08T12:53:40.946Z,2.10
2023-02-08T12:57:01.524Z,2.00
2023-02-08T13:00:16.070Z,1.80
2023-02-08T13:03:33.406Z,1.80
2023-02-08T13:06:41.980Z,1.70
2023-02-08T13:09:51.278Z,1.70
2023-02-08T13:13:00.483Z,1.60
2023-02-08T13:16:14.794Z,1.50
2023-02-08T13:19:26.115Z,1.60
2023-02-08T13:22:35.848Z,1.70
2023-02-08T13:25:39.597Z,1.60
2023-02-08T13:28:49.286Z,1.50
2023-02-08T13:31:56.268Z,1.60
2023-02-08T13:35:03.839Z,1.50
2023-02-08T13:38:23.949Z,1.50
2023-02-08T13:41:29.637Z,1.50
2023-02-08T13:44:38.450Z,3.40
2023-02-08T13:47:46.925Z,2.00
2023-02-08T13:50:52.004Z,2.00
2023-02-08T13:54:13.758Z,2.20
2023-02-08T13:57:52.330Z,2.30
2023-02-08T14:01:16.424Z,2.10
2023-02-08T14:04:38.046Z,1.80
2023-02-08T14:07:45.919Z,1.50
2023-02-08T14:11:01.573Z,1.30
2023-02-08T14:14:14.199Z,1.40
2023-02-08T14:17:25.079Z,1.30
2023-02-08T14:20:36.379Z,1.10
2023-02-08T14:23:40.781Z,0.90
2023-02-08T14:26:44.227Z,1.10
2023-02-08T14:29:57.809Z,0.90
2023-02-08T14:33:16.387Z,0.80
2023-02-08T14:36:29.995Z,0.50
2023-02-08T14:39:35.447Z,0.10
2023-02-08T14:42:58.434Z,-0.30
2023-02-08T14:46:34.966Z,-0.60
2023-02-08T14:49:43.452Z,-0.70
2023-02-08T14:52:52.490Z,-0.80
2023-02-08T14:56:00.368Z,-0.20
2023-02-08T14:59:09.712Z,-1.00
2023-02-08T15:02:21.604Z,-1.20
2023-02-08T15:05:30.375Z,-1.40
2023-02-08T15:08:34.143Z,-1.50
2023-02-08T15:11:39.197Z,-1.60
2023-02-08T15:14:45.884Z,-1.70
2023-02-08T15:17:51.955Z,-1.80
2023-02-08T15:21:04.001Z,-1.80
2023-02-08T15:24:16.491Z,-1.90
2023-02-08T15:27:29.109Z,-2.10
2023-02-08T15:30:36.019Z,-2.20
2023-02-08T15:33:42.549Z,-2.30
2023-02-08T15:36:52.119Z,-2.40
2023-02-08T15:39:58.966Z,-2.60
2023-02-08T15:43:14.063Z,-2.70
2023-02-08T15:46:23.659Z,-2.50
2023-02-08T15:49:32.017Z,-2.70
2023-02-08T15:52:39.030Z,-2.90
2023-02-08T15:55:49.944Z,-3.00
2023-02-08T15:58:56.676Z,-3.10
2023-02-08T16:02:10.405Z,-3.20
2023-02-08T16:05:21.963Z,-3.30
2023-02-08T16:08:29.678Z,-3.40
2023-02-08T16:11:35.793Z,-3.30
2023-02-08T16:14:52.641Z,-3.40
2023-02-08T16:18:01.996Z,-3.60
2023-02-08T16:21:37.070Z,-3.80
2023-02-08T16:24:51.200Z,-3.80
2023-02-08T16:28:06.278Z,-4.80
2023-02-08T16:31:13.354Z,-3.90
2023-02-08T16:34:41.895Z,-3.80
2023-02-08T16:38:16.231Z,-4.00
2023-02-08T16:42:31.004Z,-3.90
2023-02-08T16:45:40.911Z,-5.50
2023-02-08T16:49:30.033Z,-4.00
2023-02-08T16:52:42.862Z,-4.10
2023-02-08T16:55:58.782Z,-4.10
2023-02-08T16:59:09.693Z,-4.20
2023-02-08T17:02:35.846Z,-4.10
2023-02-08T17:06:06.991Z,-4.10
2023-02-08T17:09:21.661Z,-4.20
2023-02-08T17:12:27.072Z,-3.00
2023-02-08T17:15:32.439Z,-3.30
2023-02-08T17:18:36.207Z,-4.30
2023-02-08T17:21:39.986Z,-4.40
2023-02-08T17:24:43.689Z,-4.50
2023-02-08T17:27:50.918Z,-4.50
2023-02-08T17:30:56.843Z,-4.50
2023-02-08T17:34:04.518Z,-4.50
2023-02-08T17:37:08.764Z,-4.60
2023-02-08T17:40:12.969Z,-4.10
2023-02-08T17:43:17.480Z,-4.80
2023-02-08T17:46:24.314Z,-4.70
2023-02-08T17:49:30.352Z,-4.80
2023-02-08T17:52:36.285Z,-3.50
2023-02-08T17:55:43.020Z,-4.80
2023-02-08T17:58:50.137Z,-5.00
2023-02-08T18:02:00.691Z,-3.90
2023-02-08T18:05:04.513Z,-5.20
2023-02-08T18:08:08.226Z,-5.20
2023-02-08T18:11:16.016Z,-5.20
2023-02-08T18:14:20.422Z,-3.90
2023-02-08T18:17:26.746Z,-5.30
2023-02-08T18:20:30.556Z,-4.50
2023-02-08T18:23:33.888Z,-4.20
2023-02-08T18:26:37.216Z,-5.40
2023-02-08T18:29:40.554Z,-5.30
2023-02-08T18:32:45.540Z,-5.00
2023-02-08T18:35:50.187Z,-5.20
2023-02-08T18:38:55.924Z,-5.60
2023-02-08T18:41:59.172Z,-5.30
2023-02-08T18:45:02.932Z,-5.70
2023-02-08T18:48:08.465Z,-5.70
2023-02-08T18:51:15.447Z,-5.70
2023-02-08T18:54:20.022Z,-4.80
2023-02-08T18:57:23.580Z,-5.70
2023-02-08T19:00:27.251Z,-5.60
2023-02-08T19:03:32.182Z,-5.50
2023-02-08T19:06:41.224Z,-5.50
2023-02-08T19:09:45.288Z,-5.50
2023-02-08T19:12:48.602Z,-5.00
2023-02-08T19:15:52.216Z,-5.40
2023-02-08T19:18:57.770Z,-5.40
2023-02-08T19:22:01.534Z,-5.20
2023-02-08T19:25:05.568Z,-4.20
2023-02-08T19:28:09.026Z,-5.00
2023-02-08T19:31:14.545Z,-5.00
2023-02-08T19:34:19.806Z,-5.00
2023-02-08T19:37:23.207Z,-5.20
2023-02-08T19:40:26.739Z,-5.30
2023-02-08T19:43:30.786Z,-5.60
2023-02-08T19:46:38.923Z,-5.80
2023-02-08T19:49:43.719Z,-5.90
2023-02-08T19:52:50.198Z,-6.10
2023-02-08T19:55:59.235Z,-6.10
2023-02-08T19:59:04.315Z,-6.10
2023-02-08T20:02:08.517Z,-5.80
2023-02-08T20:05:13.707Z,-6.30
2023-02-08T20:08:17.406Z,-6.20
2023-02-08T20:11:23.599Z,-6.20
2023-02-08T20:14:29.215Z,-6.10
2023-02-08T20:17:32.586Z,-5.40
2023-02-08T20:20:40.782Z,-5.50
2023-02-08T20:23:44.691Z,-5.30
2023-02-08T20:26:49.311Z,-5.00
2023-02-08T20:29:52.803Z,-5.90
2023-02-08T20:32:57.525Z,-6.40
2023-02-08T20:36:09.690Z,-6.40
2023-02-08T20:39:16.670Z,-6.30
2023-02-08T20:42:20.470Z,-6.20
2023-02-08T20:45:25.024Z,-6.20
2023-02-08T20:48:29.325Z,-6.30
2023-02-08T20:51:34.736Z,-6.40
2023-02-08T20:54:39.352Z,-6.50
2023-02-08T20:57:44.148Z,-6.50
2023-02-08T21:00:48.406Z,-6.50
2023-02-08T21:03:54.194Z,-6.70
2023-02-08T21:06:59.677Z,-6.80
2023-02-08T21:10:04.001Z,-6.40
2023-02-08T21:13:07.857Z,-6.90
2023-02-08T21:16:12.079Z,-7.10
2023-02-08T21:19:16.323Z,-7.10
2023-02-08T21:22:21.343Z,-7.20
2023-02-08T21:25:28.713Z,-6.60
2023-02-08T21:28:32.890Z,-7.40
2023-02-08T21:31:37.773Z,-7.30
2023-02-08T21:34:41.250Z,-7.30
2023-02-08T21:37:45.979Z,-7.80
2023-02-08T21:40:49.560Z,-7.90
2023-02-08T21:43:55.346Z,-6.80
2023-02-08T21:46:58.832Z,-8.00
2023-02-08T21:50:19.414Z,-6.80
2023-02-08T21:53:41.592Z,-8.00
2023-02-08T21:56:44.994Z,-8.10
2023-02-08T21:59:50.227Z,-8.20
2023-02-08T22:02:53.610Z,-8.20
2023-02-08T22:05:57.498Z,-8.00
2023-02-08T22:09:02.113Z,-8.30
2023-02-08T22:12:06.010Z,-8.10
2023-02-08T22:15:10.798Z,-8.50
2023-02-08T22:18:14.310Z,-8.50
2023-02-08T22:21:18.963Z,-8.50
2023-02-08T22:24:23.732Z,-8.50
2023-02-08T22:27:27.685Z,-8.50
2023-02-08T22:30:31.080Z,-8.50
2023-02-08T22:33:34.492Z,-8.60
2023-02-08T22:36:37.924Z,-8.30
2023-02-08T22:39:42.932Z,-8.60
2023-02-08T22:42:46.670Z,-8.60
2023-02-08T22:45:58.231Z,-8.60
2023-02-08T22:49:01.543Z,-8.60
2023-02-08T22:52:05.509Z,-8.70
2023-02-08T22:55:10.562Z,-8.70
2023-02-08T22:58:13.994Z,-8.70
2023-02-08T23:01:18.392Z,-8.60
2023-02-08T23:04:22.265Z,-8.70
2023-02-08T23:07:25.611Z,-8.80
2023-02-08T23:10:30.299Z,-9.00
2023-02-08T23:13:35.456Z,-9.00
2023-02-08T23:16:39.070Z,-9.00
2023-02-08T23:19:43.009Z,-8.90
2023-02-08T23:22:46.329Z,-9.00
2023-02-08T23:25:51.058Z,-8.60
2023-02-08T23:28:55.886Z,-8.90
2023-02-08T23:31:59.129Z,-9.10
2023-02-08T23:35:02.432Z,-9.10
2023-02-08T23:38:05.632Z,-9.20
2023-02-08T23:41:12.632Z,-9.10
2023-02-08T23:44:15.854Z,-9.10
2023-02-08T23:47:19.106Z,-9.10
2023-02-08T23:50:22.469Z,-9.20
2023-02-08T23:53:26.800Z,-9.20
2023-02-08T23:56:32.791Z,-9.30
2023-02-08T23:59:36.211Z,-9.20
